Pollard, Alabama
Current Conditions -  °F | °C
As of 10:53 AM on Wednesday 26 Nov 2014 (Local Time) from KGZH Reporting Station
Clear Clear  
Wind Chill: 56°   Ceiling: Unl
Heat Index: 56°   Visibility: 10mi
Dew Point: 24°   Wind: 5mph
Humidity: 29%   Direction: 330°NNW
Pressure: 30.22"   Gusts: NA
Location:  31.1088°N, 87.2802°W
Report Text: KGZH 261653Z AUTO 33004KT 10SM CLR 13/M04 A3022 RMK AO2 SLP233 T01331044
Loading
Personal Weather Stations






























Interactive Weather Map New forecast layout! Learn more

10-Day Weather Forecast

Advertisements
Track Severe Weather on mobile